Time,TemperatureF,DewpointF,PressureIn,WindDirection,WindDirectionDegrees,WindSpeedMPH,WindSpeedGustMPH,Humidity,HourlyPrecipIn,Conditions,Clouds,dailyrainin,SoftwareType,DateUTC
2013-09-02 00:03:00,61.5,47.0,29.80,ENE,78,1.0,2.0,59,0.00,,,0.00,weatherlink.com 1.10,2013-09-02 06:03:00,
2013-09-02 00:18:00,61.8,47.0,29.80,East,83,1.0,4.0,58,0.00,,,0.00,weatherlink.com 1.10,2013-09-02 06:18:00,
2013-09-02 00:33:00,60.9,48.0,29.80,East,86,2.0,2.0,63,0.00,,,0.00,weatherlink.com 1.10,2013-09-02 06:33:00,
2013-09-02 00:48:00,61.1,48.0,29.80,East,81,0.0,4.0,63,0.00,,,0.00,weatherlink.com 1.10,2013-09-02 06:48:00,
2013-09-02 01:03:00,59.8,47.0,29.80,NNW,335,0.0,2.0,64,0.00,,,0.00,weatherlink.com 1.10,2013-09-02 07:03:00,
2013-09-02 01:18:00,59.8,47.0,29.80,East,81,0.0,1.0,64,0.00,,,0.00,weatherlink.com 1.10,2013-09-02 07:18:00,
2013-09-02 01:33:00,59.3,47.0,29.80,NNW,338,0.0,1.0,65,0.00,,,0.00,weatherlink.com 1.10,2013-09-02 07:33:00,
2013-09-02 01:48:00,58.5,47.0,29.80,NNW,330,0.0,2.0,65,0.00,,,0.00,weatherlink.com 1.10,2013-09-02 07:48:00,
2013-09-02 02:03:00,58.6,46.0,29.80,NNW,336,0.0,1.0,64,0.00,,,0.00,weatherlink.com 1.10,2013-09-02 08:03:00,
2013-09-02 02:18:00,57.8,46.0,29.80,NNW,341,0.0,1.0,65,0.00,,,0.00,weatherlink.com 1.10,2013-09-02 08:18:00,
2013-09-02 02:33:00,56.6,45.0,29.80,East,79,0.0,1.0,66,0.00,,,0.00,weatherlink.com 1.10,2013-09-02 08:33:00,
2013-09-02 02:48:00,55.4,45.0,29.80,East,79,0.0,1.0,68,0.00,,,0.00,weatherlink.com 1.10,2013-09-02 08:48:00,
2013-09-02 03:03:00,55.3,46.0,29.80,East,79,0.0,0.0,71,0.00,,,0.00,weatherlink.com 1.10,2013-09-02 09:03:00,
2013-09-02 03:18:00,55.0,45.0,29.80,East,79,0.0,0.0,69,0.00,,,0.00,weatherlink.com 1.10,2013-09-02 09:18:00,
2013-09-02 03:33:00,54.6,45.0,29.79,ENE,77,0.0,0.0,70,0.00,,,0.00,weatherlink.com 1.10,2013-09-02 09:33:00,
2013-09-02 03:48:00,53.8,46.0,29.80,ENE,75,0.0,0.0,76,0.00,,,0.00,weatherlink.com 1.10,2013-09-02 09:48:00,
2013-09-02 04:03:00,53.2,46.0,29.80,ENE,69,0.0,0.0,76,0.00,,,0.00,weatherlink.com 1.10,2013-09-02 10:03:00,
2013-09-02 04:18:00,53.4,46.0,29.79,ENE,70,0.0,0.0,76,0.00,,,0.00,weatherlink.com 1.10,2013-09-02 10:18:00,
2013-09-02 04:33:00,52.2,46.0,29.79,ENE,69,0.0,0.0,79,0.00,,,0.00,weatherlink.com 1.10,2013-09-02 10:33:00,
2013-09-02 04:48:00,52.2,46.0,29.79,ENE,68,0.0,0.0,79,0.00,,,0.00,weatherlink.com 1.10,2013-09-02 10:48:00,
2013-09-02 05:03:00,51.1,46.0,29.79,NNW,333,0.0,0.0,82,0.00,,,0.00,weatherlink.com 1.10,2013-09-02 11:03:00,
2013-09-02 05:18:00,51.4,45.0,29.80,NNW,336,0.0,0.0,80,0.00,,,0.00,weatherlink.com 1.10,2013-09-02 11:18:00,
2013-09-02 05:33:00,51.1,44.0,29.81,NNW,332,0.0,1.0,77,0.00,,,0.00,weatherlink.com 1.10,2013-09-02 11:33:00,
2013-09-02 05:48:00,51.0,44.0,29.81,NNW,334,0.0,1.0,78,0.00,,,0.00,weatherlink.com 1.10,2013-09-02 11:48:00,
2013-09-02 06:03:00,50.9,46.0,29.81,NNW,336,0.0,0.0,82,0.00,,,0.00,weatherlink.com 1.10,2013-09-02 12:03:00,
2013-09-02 06:18:00,50.2,45.0,29.81,NNW,336,0.0,0.0,82,0.00,,,0.00,weatherlink.com 1.10,2013-09-02 12:18:00,
2013-09-02 06:33:00,50.4,45.0,29.82,NNW,336,0.0,1.0,82,0.00,,,0.00,weatherlink.com 1.10,2013-09-02 12:33:00,
2013-09-02 06:48:00,50.0,45.0,29.82,North,351,0.0,0.0,82,0.00,,,0.00,weatherlink.com 1.10,2013-09-02 12:48:00,
2013-09-02 07:04:00,50.2,45.0,29.82,North,350,0.0,0.0,83,0.00,,,0.00,weatherlink.com 1.10,2013-09-02 13:04:00,
2013-09-02 07:19:00,50.4,45.0,29.82,North,350,0.0,0.0,82,0.00,,,0.00,weatherlink.com 1.10,2013-09-02 13:19:00,
2013-09-02 07:34:00,51.3,45.0,29.82,NNW,340,1.0,1.0,78,0.00,,,0.00,weatherlink.com 1.10,2013-09-02 13:34:00,
2013-09-02 07:49:00,53.1,46.0,29.82,NNW,338,0.0,1.0,77,0.00,,,0.00,weatherlink.com 1.10,2013-09-02 13:49:00,
2013-09-02 08:04:00,56.9,48.0,29.82,NNW,340,0.0,1.0,72,0.00,,,0.00,weatherlink.com 1.10,2013-09-02 14:04:00,
2013-09-02 08:19:00,57.5,49.0,29.82,NNW,336,0.0,2.0,72,0.00,,,0.00,weatherlink.com 1.10,2013-09-02 14:19:00,
2013-09-02 08:34:00,59.8,48.0,29.82,NNW,339,0.0,1.0,66,0.00,,,0.00,weatherlink.com 1.10,2013-09-02 14:34:00,
2013-09-02 08:49:00,62.4,48.0,29.81,NNW,339,0.0,1.0,60,0.00,,,0.00,weatherlink.com 1.10,2013-09-02 14:49:00,
2013-09-02 09:04:00,63.5,48.0,29.81,NNW,334,1.0,3.0,57,0.00,,,0.00,weatherlink.com 1.10,2013-09-02 15:04:00,
2013-09-02 09:19:00,64.7,49.0,29.81,WNW,303,2.0,4.0,58,0.00,,,0.00,weatherlink.com 1.10,2013-09-02 15:19:00,
2013-09-02 09:34:00,66.5,49.0,29.81,WSW,249,1.0,4.0,53,0.00,,,0.00,weatherlink.com 1.10,2013-09-02 15:34:00,
2013-09-02 09:49:00,68.8,48.0,29.80,WNW,286,0.0,-999.0,47,-99.99,,,0.00,weatherlink.com 1.10,2013-09-02 15:49:00,
2013-09-02 10:04:00,70.6,48.0,29.80,WNW,285,1.0,3.0,44,0.00,,,0.00,weatherlink.com 1.10,2013-09-02 16:04:00,
2013-09-02 10:19:00,72.3,48.0,29.80,WNW,285,1.0,3.0,43,0.00,,,0.00,weatherlink.com 1.10,2013-09-02 16:19:00,
2013-09-02 10:34:00,73.8,48.0,29.80,WSW,257,2.0,3.0,40,0.00,,,0.00,weatherlink.com 1.10,2013-09-02 16:34:00,
2013-09-02 10:49:00,76.6,49.0,29.79,SW,221,0.0,2.0,38,0.00,,,0.00,weatherlink.com 1.10,2013-09-02 16:49:00,
2013-09-02 11:04:00,78.5,49.0,29.78,ENE,77,0.0,2.0,35,0.00,,,0.00,weatherlink.com 1.10,2013-09-02 17:04:00,
2013-09-02 11:19:00,78.1,48.0,29.77,East,91,0.0,3.0,35,0.00,,,0.00,weatherlink.com 1.10,2013-09-02 17:19:00,
2013-09-02 11:34:00,80.7,51.0,29.77,ENE,75,0.0,3.0,36,0.00,,,0.00,weatherlink.com 1.10,2013-09-02 17:34:00,
2013-09-02 11:49:00,81.4,50.0,29.77,NNW,333,4.0,8.0,34,0.00,,,0.00,weatherlink.com 1.10,2013-09-02 17:49:00,
2013-09-02 12:04:00,82.3,50.0,29.75,NNW,333,2.0,5.0,33,0.00,,,0.00,weatherlink.com 1.10,2013-09-02 18:04:00,
2013-09-02 12:19:00,84.0,53.0,29.75,North,9,0.0,3.0,34,0.00,,,0.00,weatherlink.com 1.10,2013-09-02 18:19:00,
2013-09-02 12:34:00,84.3,55.0,29.73,WNW,289,1.0,3.0,36,0.00,,,0.00,weatherlink.com 1.10,2013-09-02 18:34:00,
2013-09-02 12:50:00,85.5,53.0,29.73,WNW,297,0.0,3.0,33,0.00,,,0.00,weatherlink.com 1.10,2013-09-02 18:50:00,
2013-09-02 13:05:00,87.2,55.0,29.72,NW,318,1.0,3.0,33,0.00,,,0.00,weatherlink.com 1.10,2013-09-02 19:05:00,
2013-09-02 13:20:00,90.2,52.0,29.71,NNE,33,2.0,4.0,27,0.00,,,0.00,weatherlink.com 1.10,2013-09-02 19:20:00,
2013-09-02 13:35:00,91.7,54.0,29.70,ENE,70,2.0,6.0,28,0.00,,,0.00,weatherlink.com 1.10,2013-09-02 19:35:00,
2013-09-02 13:50:00,92.5,53.0,29.70,ENE,60,4.0,7.0,26,0.00,,,0.00,weatherlink.com 1.10,2013-09-02 19:50:00,
2013-09-02 14:05:00,93.5,53.0,29.69,NE,49,5.0,7.0,25,0.00,,,0.00,weatherlink.com 1.10,2013-09-02 20:05:00,
2013-09-02 14:20:00,96.0,56.0,29.68,SE,126,5.0,5.0,26,0.00,,,0.00,weatherlink.com 1.10,2013-09-02 20:20:00,
2013-09-02 14:35:00,94.4,50.0,29.67,ENE,58,6.0,11.0,22,0.00,,,0.00,weatherlink.com 1.10,2013-09-02 20:35:00,
2013-09-02 14:50:00,95.6,51.0,29.67,ESE,120,3.0,6.0,22,0.00,,,0.00,weatherlink.com 1.10,2013-09-02 20:50:00,
2013-09-02 15:05:00,96.4,40.0,29.66,SE,129,5.0,12.0,14,0.00,,,0.00,weatherlink.com 1.10,2013-09-02 21:05:00,
2013-09-02 15:20:00,96.1,43.0,29.66,SE,139,4.0,10.0,16,0.00,,,0.00,weatherlink.com 1.10,2013-09-02 21:20:00,
2013-09-02 15:35:00,96.5,42.0,29.66,SE,136,8.0,13.0,15,0.00,,,0.00,weatherlink.com 1.10,2013-09-02 21:35:00,
2013-09-02 15:50:00,96.2,40.0,29.66,SSE,159,9.0,12.0,14,0.00,,,0.00,weatherlink.com 1.10,2013-09-02 21:50:00,
2013-09-02 16:05:00,96.0,43.0,29.66,South,181,8.0,11.0,16,0.00,,,0.00,weatherlink.com 1.10,2013-09-02 22:05:00,
2013-09-02 16:20:00,95.8,43.0,29.66,SSE,156,9.0,12.0,16,0.00,,,0.00,weatherlink.com 1.10,2013-09-02 22:20:00,
2013-09-02 16:35:00,95.2,45.0,29.66,South,169,6.0,14.0,18,0.00,,,0.00,weatherlink.com 1.10,2013-09-02 22:35:00,
2013-09-02 16:50:00,94.7,45.0,29.66,South,180,4.0,12.0,18,0.00,,,0.00,weatherlink.com 1.10,2013-09-02 22:50:00,
2013-09-02 17:05:00,93.8,47.0,29.66,SSW,206,3.0,8.0,20,0.00,,,0.00,weatherlink.com 1.10,2013-09-02 23:05:00,
2013-09-02 17:20:00,93.8,48.0,29.66,South,185,4.0,5.0,21,0.00,,,0.00,weatherlink.com 1.10,2013-09-02 23:20:00,
2013-09-02 17:35:00,93.6,48.0,29.66,SSE,160,1.0,4.0,21,0.00,,,0.00,weatherlink.com 1.10,2013-09-02 23:35:00,
2013-09-02 17:50:00,89.6,51.0,29.67,WSW,257,6.0,10.0,27,0.00,,,0.00,weatherlink.com 1.10,2013-09-02 23:50:00,
2013-09-02 18:05:00,87.5,51.0,29.68,SW,234,4.0,8.0,28,0.00,,,0.00,weatherlink.com 1.10,2013-09-03 00:05:00,
2013-09-02 18:20:00,86.5,49.0,29.68,WSW,257,2.0,10.0,27,0.00,,,0.00,weatherlink.com 1.10,2013-09-03 00:20:00,
2013-09-02 18:35:00,85.5,49.0,29.68,SSW,196,3.0,9.0,28,0.00,,,0.00,weatherlink.com 1.10,2013-09-03 00:35:00,
2013-09-02 18:50:00,84.8,49.0,29.68,SSE,153,4.0,15.0,29,0.00,,,0.00,weatherlink.com 1.10,2013-09-03 00:50:00,
2013-09-02 19:06:00,85.5,49.0,29.68,WSW,243,6.0,13.0,28,0.00,,,0.00,weatherlink.com 1.10,2013-09-03 01:06:00,
2013-09-02 19:20:00,86.5,47.0,29.69,WNW,287,2.0,7.0,25,0.00,,,0.00,weatherlink.com 1.10,2013-09-03 01:20:00,
2013-09-02 19:35:00,85.8,47.0,29.69,East,93,1.0,3.0,26,0.00,,,0.00,weatherlink.com 1.10,2013-09-03 01:35:00,
2013-09-02 19:50:00,85.8,47.0,29.69,ESE,122,1.0,6.0,26,0.00,,,0.00,weatherlink.com 1.10,2013-09-03 01:50:00,
2013-09-02 20:05:00,85.5,49.0,29.70,NW,305,4.0,5.0,28,0.00,,,0.00,weatherlink.com 1.10,2013-09-03 02:05:00,
2013-09-02 20:20:00,85.1,47.0,29.70,NW,320,7.0,8.0,26,0.00,,,0.00,weatherlink.com 1.10,2013-09-03 02:20:00,
2013-09-02 20:35:00,85.1,47.0,29.69,NNW,338,6.0,8.0,26,0.00,,,0.00,weatherlink.com 1.10,2013-09-03 02:35:00,
2013-09-02 20:50:00,85.5,47.0,29.69,North,360,5.0,7.0,26,0.00,,,0.00,weatherlink.com 1.10,2013-09-03 02:50:00,
2013-09-02 21:05:00,85.0,46.0,29.68,NW,317,6.0,11.0,26,0.00,,,0.00,weatherlink.com 1.10,2013-09-03 03:05:00,
2013-09-02 21:20:00,85.7,46.0,29.70,NNW,332,8.0,12.0,25,0.00,,,0.00,weatherlink.com 1.10,2013-09-03 03:20:00,
2013-09-02 21:35:00,84.6,47.0,29.70,WNW,294,5.0,13.0,27,0.00,,,0.00,weatherlink.com 1.10,2013-09-03 03:35:00,
2013-09-02 21:50:00,83.6,47.0,29.70,North,349,7.0,11.0,28,0.00,,,0.00,weatherlink.com 1.10,2013-09-03 03:50:00,
2013-09-02 22:05:00,84.1,47.0,29.70,NW,319,7.0,12.0,27,0.00,,,0.00,weatherlink.com 1.10,2013-09-03 04:05:00,
2013-09-02 22:20:00,83.1,48.0,29.71,West,268,2.0,11.0,29,0.00,,,0.00,weatherlink.com 1.10,2013-09-03 04:20:00,
2013-09-02 22:35:00,82.3,47.0,29.71,WSW,246,0.0,4.0,29,0.00,,,0.00,weatherlink.com 1.10,2013-09-03 04:35:00,
2013-09-02 22:50:00,81.6,48.0,29.72,SSW,210,3.0,6.0,31,0.00,,,0.00,weatherlink.com 1.10,2013-09-03 04:50:00,
2013-09-02 23:05:00,81.8,48.0,29.72,NW,314,3.0,6.0,31,0.00,,,0.00,weatherlink.com 1.10,2013-09-03 05:05:00,
2013-09-02 23:20:00,80.3,49.0,29.71,West,281,0.0,6.0,34,0.00,,,0.00,weatherlink.com 1.10,2013-09-03 05:20:00,
2013-09-02 23:35:00,80.3,49.0,29.72,WSW,250,1.0,7.0,33,0.00,,,0.00,weatherlink.com 1.10,2013-09-03 05:35:00,
2013-09-02 23:51:00,78.7,50.0,29.73,WSW,252,1.0,4.0,36,0.00,,,0.00,weatherlink.com 1.10,2013-09-03 05:51:00,